sensor_id;sensor_type;location;lat;lon;timestamp;P1;durP1;ratioP1;P2;durP2;ratioP2
63259;SDS011;49390;51.380;0.098;2023-11-21T00:00:15;4.80;;;2.90;;
63259;SDS011;49390;51.380;0.098;2023-11-21T00:03:03;6.63;;;3.25;;
63259;SDS011;49390;51.380;0.098;2023-11-21T00:05:32;6.38;;;3.30;;
63259;SDS011;49390;51.380;0.098;2023-11-21T00:07:59;7.05;;;3.42;;
63259;SDS011;49390;51.380;0.098;2023-11-21T00:10:27;6.03;;;3.30;;
63259;SDS011;49390;51.380;0.098;2023-11-21T00:12:55;5.45;;;3.20;;
63259;SDS011;49390;51.380;0.098;2023-11-21T00:15:23;5.47;;;3.35;;
63259;SDS011;49390;51.380;0.098;2023-11-21T00:17:51;6.35;;;3.40;;
63259;SDS011;49390;51.380;0.098;2023-11-21T00:20:19;8.30;;;3.40;;
63259;SDS011;49390;51.380;0.098;2023-11-21T00:22:47;6.30;;;3.28;;
63259;SDS011;49390;51.380;0.098;2023-11-21T00:25:15;6.72;;;3.50;;
63259;SDS011;49390;51.380;0.098;2023-11-21T00:27:45;7.55;;;3.70;;
63259;SDS011;49390;51.380;0.098;2023-11-21T00:30:13;10.00;;;3.95;;
63259;SDS011;49390;51.380;0.098;2023-11-21T00:32:41;6.60;;;3.40;;
63259;SDS011;49390;51.380;0.098;2023-11-21T00:35:09;6.55;;;3.55;;
63259;SDS011;49390;51.380;0.098;2023-11-21T00:37:37;6.63;;;4.03;;
63259;SDS011;49390;51.380;0.098;2023-11-21T00:40:06;7.13;;;4.15;;
63259;SDS011;49390;51.380;0.098;2023-11-21T00:42:34;7.75;;;3.83;;
63259;SDS011;49390;51.380;0.098;2023-11-21T00:45:03;9.02;;;4.45;;
63259;SDS011;49390;51.380;0.098;2023-11-21T00:47:31;6.97;;;4.05;;
63259;SDS011;49390;51.380;0.098;2023-11-21T00:50:00;7.55;;;4.05;;
63259;SDS011;49390;51.380;0.098;2023-11-21T00:52:28;7.68;;;4.20;;
63259;SDS011;49390;51.380;0.098;2023-11-21T00:54:56;7.93;;;4.53;;
63259;SDS011;49390;51.380;0.098;2023-11-21T00:57:26;8.80;;;4.43;;
63259;SDS011;49390;51.380;0.098;2023-11-21T00:59:54;8.90;;;5.35;;
63259;SDS011;49390;51.380;0.098;2023-11-21T01:02:22;7.05;;;4.07;;
63259;SDS011;49390;51.380;0.098;2023-11-21T01:04:50;6.95;;;4.13;;
63259;SDS011;49390;51.380;0.098;2023-11-21T01:07:17;7.63;;;4.38;;
63259;SDS011;49390;51.380;0.098;2023-11-21T01:09:48;10.23;;;4.55;;
63259;SDS011;49390;51.380;0.098;2023-11-21T01:12:15;8.60;;;4.03;;
63259;SDS011;49390;51.380;0.098;2023-11-21T01:14:44;8.77;;;4.43;;
63259;SDS011;49390;51.380;0.098;2023-11-21T01:17:12;8.85;;;4.60;;
63259;SDS011;49390;51.380;0.098;2023-11-21T01:19:40;8.13;;;4.35;;
63259;SDS011;49390;51.380;0.098;2023-11-21T01:22:08;7.93;;;4.57;;
63259;SDS011;49390;51.380;0.098;2023-11-21T01:24:36;8.82;;;4.60;;
63259;SDS011;49390;51.380;0.098;2023-11-21T01:27:04;7.65;;;4.32;;
63259;SDS011;49390;51.380;0.098;2023-11-21T01:29:32;8.35;;;4.63;;
63259;SDS011;49390;51.380;0.098;2023-11-21T01:31:59;8.93;;;4.72;;
63259;SDS011;49390;51.380;0.098;2023-11-21T01:34:27;8.55;;;4.50;;
63259;SDS011;49390;51.380;0.098;2023-11-21T01:36:55;8.40;;;4.38;;
63259;SDS011;49390;51.380;0.098;2023-11-21T01:39:23;9.50;;;4.80;;
63259;SDS011;49390;51.380;0.098;2023-11-21T01:41:52;10.00;;;4.82;;
63259;SDS011;49390;51.380;0.098;2023-11-21T01:44:20;7.78;;;4.32;;
63259;SDS011;49390;51.380;0.098;2023-11-21T01:46:48;8.18;;;4.30;;
63259;SDS011;49390;51.380;0.098;2023-11-21T01:49:17;6.95;;;3.90;;
63259;SDS011;49390;51.380;0.098;2023-11-21T01:51:47;6.93;;;3.75;;
63259;SDS011;49390;51.380;0.098;2023-11-21T01:54:17;7.20;;;3.70;;
63259;SDS011;49390;51.380;0.098;2023-11-21T01:56:46;6.65;;;3.33;;
63259;SDS011;49390;51.380;0.098;2023-11-21T01:59:16;6.35;;;3.35;;
63259;SDS011;49390;51.380;0.098;2023-11-21T02:01:47;6.15;;;3.40;;
63259;SDS011;49390;51.380;0.098;2023-11-21T02:04:15;5.35;;;3.20;;
63259;SDS011;49390;51.380;0.098;2023-11-21T02:06:43;5.38;;;3.20;;
63259;SDS011;49390;51.380;0.098;2023-11-21T02:09:10;4.63;;;2.63;;
63259;SDS011;49390;51.380;0.098;2023-11-21T02:14:10;4.32;;;2.47;;
63259;SDS011;49390;51.380;0.098;2023-11-21T02:16:37;6.45;;;2.60;;
63259;SDS011;49390;51.380;0.098;2023-11-21T02:19:06;4.53;;;2.53;;
63259;SDS011;49390;51.380;0.098;2023-11-21T02:21:37;4.63;;;2.60;;
63259;SDS011;49390;51.380;0.098;2023-11-21T02:24:07;3.40;;;2.00;;
63259;SDS011;49390;51.380;0.098;2023-11-21T02:26:35;3.85;;;2.10;;
63259;SDS011;49390;51.380;0.098;2023-11-21T02:29:03;3.63;;;2.17;;
63259;SDS011;49390;51.380;0.098;2023-11-21T02:31:31;4.13;;;2.15;;
63259;SDS011;49390;51.380;0.098;2023-11-21T02:34:01;3.22;;;1.90;;
63259;SDS011;49390;51.380;0.098;2023-11-21T02:36:28;5.45;;;2.60;;
63259;SDS011;49390;51.380;0.098;2023-11-21T02:38:57;4.38;;;2.20;;
63259;SDS011;49390;51.380;0.098;2023-11-21T02:41:24;4.60;;;2.33;;
63259;SDS011;49390;51.380;0.098;2023-11-21T02:43:53;4.72;;;2.42;;
63259;SDS011;49390;51.380;0.098;2023-11-21T02:46:21;3.63;;;2.20;;
63259;SDS011;49390;51.380;0.098;2023-11-21T02:48:49;4.88;;;2.28;;
63259;SDS011;49390;51.380;0.098;2023-11-21T02:51:18;4.90;;;2.30;;
63259;SDS011;49390;51.380;0.098;2023-11-21T02:53:46;5.47;;;3.00;;
63259;SDS011;49390;51.380;0.098;2023-11-21T02:56:13;5.47;;;2.88;;
63259;SDS011;49390;51.380;0.098;2023-11-21T02:58:42;6.10;;;3.17;;
63259;SDS011;49390;51.380;0.098;2023-11-21T03:01:11;6.07;;;3.10;;
63259;SDS011;49390;51.380;0.098;2023-11-21T03:03:40;6.93;;;3.80;;
63259;SDS011;49390;51.380;0.098;2023-11-21T03:06:08;7.95;;;3.70;;
63259;SDS011;49390;51.380;0.098;2023-11-21T03:08:37;7.80;;;3.50;;
63259;SDS011;49390;51.380;0.098;2023-11-21T03:11:04;7.38;;;3.88;;
63259;SDS011;49390;51.380;0.098;2023-11-21T03:13:32;8.18;;;4.38;;
63259;SDS011;49390;51.380;0.098;2023-11-21T03:16:00;6.85;;;4.30;;
63259;SDS011;49390;51.380;0.098;2023-11-21T03:18:28;7.88;;;3.90;;
63259;SDS011;49390;51.380;0.098;2023-11-21T03:20:56;9.05;;;4.18;;
63259;SDS011;49390;51.380;0.098;2023-11-21T03:23:24;8.77;;;4.47;;
63259;SDS011;49390;51.380;0.098;2023-11-21T03:25:52;8.20;;;4.00;;
63259;SDS011;49390;51.380;0.098;2023-11-21T03:28:19;6.40;;;3.92;;
63259;SDS011;49390;51.380;0.098;2023-11-21T03:30:47;7.47;;;3.78;;
63259;SDS011;49390;51.380;0.098;2023-11-21T03:33:15;6.15;;;3.90;;
63259;SDS011;49390;51.380;0.098;2023-11-21T03:35:43;7.68;;;3.63;;
63259;SDS011;49390;51.380;0.098;2023-11-21T03:38:12;6.95;;;3.50;;
63259;SDS011;49390;51.380;0.098;2023-11-21T03:40:40;6.70;;;3.40;;
63259;SDS011;49390;51.380;0.098;2023-11-21T03:43:08;7.00;;;3.28;;
63259;SDS011;49390;51.380;0.098;2023-11-21T03:45:35;6.82;;;3.15;;
63259;SDS011;49390;51.380;0.098;2023-11-21T03:48:03;5.47;;;3.08;;
63259;SDS011;49390;51.380;0.098;2023-11-21T03:50:31;6.43;;;3.03;;
63259;SDS011;49390;51.380;0.098;2023-11-21T03:52:59;5.75;;;2.90;;
63259;SDS011;49390;51.380;0.098;2023-11-21T03:55:28;5.70;;;3.00;;
63259;SDS011;49390;51.380;0.098;2023-11-21T03:57:56;5.50;;;2.90;;
63259;SDS011;49390;51.380;0.098;2023-11-21T04:00:25;4.65;;;2.65;;
63259;SDS011;49390;51.380;0.098;2023-11-21T04:05:24;5.28;;;3.00;;
63259;SDS011;49390;51.380;0.098;2023-11-21T04:07:52;5.60;;;2.90;;
63259;SDS011;49390;51.380;0.098;2023-11-21T04:10:19;4.60;;;2.42;;
63259;SDS011;49390;51.380;0.098;2023-11-21T04:12:47;5.88;;;2.67;;
63259;SDS011;49390;51.380;0.098;2023-11-21T04:15:15;3.97;;;2.33;;
63259;SDS011;49390;51.380;0.098;2023-11-21T04:17:44;4.57;;;2.30;;
63259;SDS011;49390;51.380;0.098;2023-11-21T04:20:12;3.92;;;2.25;;
63259;SDS011;49390;51.380;0.098;2023-11-21T04:22:40;4.30;;;2.28;;
63259;SDS011;49390;51.380;0.098;2023-11-21T04:25:11;4.38;;;2.17;;
63259;SDS011;49390;51.380;0.098;2023-11-21T04:27:40;3.53;;;2.10;;
63259;SDS011;49390;51.380;0.098;2023-11-21T04:30:11;4.28;;;2.30;;
63259;SDS011;49390;51.380;0.098;2023-11-21T04:32:40;4.90;;;2.25;;
63259;SDS011;49390;51.380;0.098;2023-11-21T04:35:09;4.07;;;2.10;;
63259;SDS011;49390;51.380;0.098;2023-11-21T04:37:37;3.90;;;2.15;;
63259;SDS011;49390;51.380;0.098;2023-11-21T04:40:05;4.38;;;2.17;;
63259;SDS011;49390;51.380;0.098;2023-11-21T04:42:34;3.25;;;1.98;;
63259;SDS011;49390;51.380;0.098;2023-11-21T04:45:06;3.30;;;1.90;;
63259;SDS011;49390;51.380;0.098;2023-11-21T04:47:40;7.47;;;2.38;;
63259;SDS011;49390;51.380;0.098;2023-11-21T04:50:08;3.65;;;1.90;;
63259;SDS011;49390;51.380;0.098;2023-11-21T04:52:36;3.78;;;2.15;;
63259;SDS011;49390;51.380;0.098;2023-11-21T04:55:04;4.45;;;2.22;;
63259;SDS011;49390;51.380;0.098;2023-11-21T04:57:34;4.20;;;2.00;;
63259;SDS011;49390;51.380;0.098;2023-11-21T05:00:02;4.57;;;2.10;;
63259;SDS011;49390;51.380;0.098;2023-11-21T05:05:05;2.95;;;1.88;;
63259;SDS011;49390;51.380;0.098;2023-11-21T05:07:35;4.10;;;2.03;;
63259;SDS011;49390;51.380;0.098;2023-11-21T05:10:04;3.67;;;2.10;;
63259;SDS011;49390;51.380;0.098;2023-11-21T05:12:38;3.78;;;1.88;;
63259;SDS011;49390;51.380;0.098;2023-11-21T05:15:07;5.30;;;2.20;;
63259;SDS011;49390;51.380;0.098;2023-11-21T05:17:38;2.95;;;1.70;;
63259;SDS011;49390;51.380;0.098;2023-11-21T05:20:11;5.03;;;2.20;;
63259;SDS011;49390;51.380;0.098;2023-11-21T05:22:41;2.55;;;1.70;;
63259;SDS011;49390;51.380;0.098;2023-11-21T05:25:09;4.53;;;1.90;;
63259;SDS011;49390;51.380;0.098;2023-11-21T05:27:38;4.10;;;1.88;;
63259;SDS011;49390;51.380;0.098;2023-11-21T05:30:06;4.22;;;1.90;;
63259;SDS011;49390;51.380;0.098;2023-11-21T05:32:40;4.55;;;1.90;;
63259;SDS011;49390;51.380;0.098;2023-11-21T05:35:11;3.58;;;2.10;;
63259;SDS011;49390;51.380;0.098;2023-11-21T05:37:45;3.80;;;1.95;;
63259;SDS011;49390;51.380;0.098;2023-11-21T05:40:14;4.10;;;2.08;;
63259;SDS011;49390;51.380;0.098;2023-11-21T05:42:42;4.13;;;2.00;;
63259;SDS011;49390;51.380;0.098;2023-11-21T05:45:10;5.90;;;2.53;;
63259;SDS011;49390;51.380;0.098;2023-11-21T05:47:40;4.35;;;2.30;;
63259;SDS011;49390;51.380;0.098;2023-11-21T05:50:09;2.95;;;1.95;;
63259;SDS011;49390;51.380;0.098;2023-11-21T05:52:43;4.07;;;2.13;;
63259;SDS011;49390;51.380;0.098;2023-11-21T05:55:11;6.25;;;2.60;;
63259;SDS011;49390;51.380;0.098;2023-11-21T05:57:41;4.40;;;2.17;;
63259;SDS011;49390;51.380;0.098;2023-11-21T06:00:14;4.50;;;2.40;;
63259;SDS011;49390;51.380;0.098;2023-11-21T06:02:49;5.38;;;2.30;;
63259;SDS011;49390;51.380;0.098;2023-11-21T06:05:18;4.50;;;2.40;;
63259;SDS011;49390;51.380;0.098;2023-11-21T06:07:48;5.50;;;2.50;;
63259;SDS011;49390;51.380;0.098;2023-11-21T06:10:16;5.70;;;2.40;;
63259;SDS011;49390;51.380;0.098;2023-11-21T06:12:46;5.82;;;2.60;;
63259;SDS011;49390;51.380;0.098;2023-11-21T06:15:15;5.72;;;2.78;;
63259;SDS011;49390;51.380;0.098;2023-11-21T06:17:46;4.72;;;2.60;;
63259;SDS011;49390;51.380;0.098;2023-11-21T06:20:16;5.03;;;2.47;;
63259;SDS011;49390;51.380;0.098;2023-11-21T06:22:47;4.18;;;2.33;;
63259;SDS011;49390;51.380;0.098;2023-11-21T06:25:17;4.40;;;2.35;;
63259;SDS011;49390;51.380;0.098;2023-11-21T06:27:46;6.05;;;2.42;;
63259;SDS011;49390;51.380;0.098;2023-11-21T06:30:15;5.35;;;2.30;;
63259;SDS011;49390;51.380;0.098;2023-11-21T06:32:43;3.65;;;2.00;;
63259;SDS011;49390;51.380;0.098;2023-11-21T06:35:15;4.72;;;1.90;;
63259;SDS011;49390;51.380;0.098;2023-11-21T06:37:44;4.63;;;2.10;;
63259;SDS011;49390;51.380;0.098;2023-11-21T06:40:17;4.60;;;2.30;;
63259;SDS011;49390;51.380;0.098;2023-11-21T06:42:47;2.95;;;1.90;;
63259;SDS011;49390;51.380;0.098;2023-11-21T06:45:16;3.65;;;2.00;;
63259;SDS011;49390;51.380;0.098;2023-11-21T06:47:44;6.00;;;2.38;;
63259;SDS011;49390;51.380;0.098;2023-11-21T06:50:12;5.05;;;2.00;;
63259;SDS011;49390;51.380;0.098;2023-11-21T06:52:41;5.85;;;2.30;;
63259;SDS011;49390;51.380;0.098;2023-11-21T06:55:08;5.50;;;2.08;;
63259;SDS011;49390;51.380;0.098;2023-11-21T06:57:37;3.92;;;1.88;;
63259;SDS011;49390;51.380;0.098;2023-11-21T07:00:05;3.80;;;2.10;;
63259;SDS011;49390;51.380;0.098;2023-11-21T07:02:37;4.32;;;2.22;;
63259;SDS011;49390;51.380;0.098;2023-11-21T07:05:05;3.30;;;1.90;;
63259;SDS011;49390;51.380;0.098;2023-11-21T07:07:34;2.95;;;1.88;;
63259;SDS011;49390;51.380;0.098;2023-11-21T07:10:03;3.45;;;1.70;;
63259;SDS011;49390;51.380;0.098;2023-11-21T07:12:33;5.22;;;1.75;;
63259;SDS011;49390;51.380;0.098;2023-11-21T07:15:01;3.35;;;1.80;;
63259;SDS011;49390;51.380;0.098;2023-11-21T07:17:30;5.80;;;2.85;;
63259;SDS011;49390;51.380;0.098;2023-11-21T07:19:58;5.05;;;2.40;;
63259;SDS011;49390;51.380;0.098;2023-11-21T07:22:26;4.47;;;2.05;;
63259;SDS011;49390;51.380;0.098;2023-11-21T07:24:54;5.90;;;2.08;;
63259;SDS011;49390;51.380;0.098;2023-11-21T07:27:24;5.03;;;2.35;;
63259;SDS011;49390;51.380;0.098;2023-11-21T07:29:51;4.43;;;2.20;;
63259;SDS011;49390;51.380;0.098;2023-11-21T07:32:19;4.25;;;2.22;;
63259;SDS011;49390;51.380;0.098;2023-11-21T07:34:47;6.88;;;2.30;;
63259;SDS011;49390;51.380;0.098;2023-11-21T07:37:16;5.13;;;1.92;;
63259;SDS011;49390;51.380;0.098;2023-11-21T07:39:43;4.55;;;2.28;;
63259;SDS011;49390;51.380;0.098;2023-11-21T07:42:11;4.72;;;2.20;;
63259;SDS011;49390;51.380;0.098;2023-11-21T07:44:39;3.88;;;2.05;;
63259;SDS011;49390;51.380;0.098;2023-11-21T07:47:07;5.63;;;2.53;;
63259;SDS011;49390;51.380;0.098;2023-11-21T07:49:35;4.95;;;2.10;;
63259;SDS011;49390;51.380;0.098;2023-11-21T07:52:03;5.05;;;2.03;;
63259;SDS011;49390;51.380;0.098;2023-11-21T07:54:30;5.03;;;2.25;;
63259;SDS011;49390;51.380;0.098;2023-11-21T07:56:58;6.63;;;2.60;;
63259;SDS011;49390;51.380;0.098;2023-11-21T07:59:26;4.53;;;2.17;;
63259;SDS011;49390;51.380;0.098;2023-11-21T08:01:54;5.03;;;2.40;;
63259;SDS011;49390;51.380;0.098;2023-11-21T08:04:21;5.18;;;2.65;;
63259;SDS011;49390;51.380;0.098;2023-11-21T08:06:50;6.75;;;2.70;;
63259;SDS011;49390;51.380;0.098;2023-11-21T08:09:18;5.53;;;2.40;;
63259;SDS011;49390;51.380;0.098;2023-11-21T08:11:46;5.57;;;3.10;;
63259;SDS011;49390;51.380;0.098;2023-11-21T08:14:14;5.43;;;2.50;;
63259;SDS011;49390;51.380;0.098;2023-11-21T08:16:42;5.70;;;2.30;;
63259;SDS011;49390;51.380;0.098;2023-11-21T08:19:11;4.28;;;2.38;;
63259;SDS011;49390;51.380;0.098;2023-11-21T08:21:39;5.88;;;2.85;;
63259;SDS011;49390;51.380;0.098;2023-11-21T08:24:07;6.03;;;2.40;;
63259;SDS011;49390;51.380;0.098;2023-11-21T08:26:38;6.45;;;3.28;;
63259;SDS011;49390;51.380;0.098;2023-11-21T08:29:06;6.18;;;2.45;;
63259;SDS011;49390;51.380;0.098;2023-11-21T08:31:34;7.30;;;2.60;;
63259;SDS011;49390;51.380;0.098;2023-11-21T08:34:02;6.47;;;2.72;;
63259;SDS011;49390;51.380;0.098;2023-11-21T08:36:30;6.10;;;2.30;;
63259;SDS011;49390;51.380;0.098;2023-11-21T08:38:58;5.38;;;2.30;;
63259;SDS011;49390;51.380;0.098;2023-11-21T08:41:26;10.20;;;3.28;;
63259;SDS011;49390;51.380;0.098;2023-11-21T08:43:54;5.97;;;2.30;;
63259;SDS011;49390;51.380;0.098;2023-11-21T08:46:23;6.28;;;2.45;;
63259;SDS011;49390;51.380;0.098;2023-11-21T08:48:52;4.80;;;2.20;;
63259;SDS011;49390;51.380;0.098;2023-11-21T08:51:20;4.80;;;2.22;;
63259;SDS011;49390;51.380;0.098;2023-11-21T08:53:48;4.47;;;2.17;;
63259;SDS011;49390;51.380;0.098;2023-11-21T08:56:16;4.97;;;2.13;;
63259;SDS011;49390;51.380;0.098;2023-11-21T08:58:45;5.72;;;2.35;;
63259;SDS011;49390;51.380;0.098;2023-11-21T09:01:18;5.53;;;2.10;;
63259;SDS011;49390;51.380;0.098;2023-11-21T09:03:46;19.05;;;4.47;;
63259;SDS011;49390;51.380;0.098;2023-11-21T09:06:14;15.02;;;2.75;;
63259;SDS011;49390;51.380;0.098;2023-11-21T09:08:42;12.38;;;3.45;;
63259;SDS011;49390;51.380;0.098;2023-11-21T09:11:11;5.72;;;2.30;;
63259;SDS011;49390;51.380;0.098;2023-11-21T09:13:38;34.10;;;6.20;;
63259;SDS011;49390;51.380;0.098;2023-11-21T09:16:06;4.18;;;2.10;;
63259;SDS011;49390;51.380;0.098;2023-11-21T09:18:34;14.45;;;3.50;;
63259;SDS011;49390;51.380;0.098;2023-11-21T09:21:02;5.65;;;2.60;;
63259;SDS011;49390;51.380;0.098;2023-11-21T09:23:31;11.20;;;2.95;;
63259;SDS011;49390;51.380;0.098;2023-11-21T09:25:59;9.73;;;2.55;;
63259;SDS011;49390;51.380;0.098;2023-11-21T09:28:28;6.30;;;2.67;;
63259;SDS011;49390;51.380;0.098;2023-11-21T09:30:55;8.75;;;2.55;;
63259;SDS011;49390;51.380;0.098;2023-11-21T09:33:23;7.40;;;3.13;;
63259;SDS011;49390;51.380;0.098;2023-11-21T09:35:52;19.25;;;4.35;;
63259;SDS011;49390;51.380;0.098;2023-11-21T09:38:21;3.45;;;2.10;;
63259;SDS011;49390;51.380;0.098;2023-11-21T09:40:49;9.45;;;2.40;;
63259;SDS011;49390;51.380;0.098;2023-11-21T09:43:21;5.30;;;2.08;;
63259;SDS011;49390;51.380;0.098;2023-11-21T09:45:52;15.10;;;3.10;;
63259;SDS011;49390;51.380;0.098;2023-11-21T09:48:25;4.80;;;2.17;;
63259;SDS011;49390;51.380;0.098;2023-11-21T09:50:54;4.20;;;1.83;;
63259;SDS011;49390;51.380;0.098;2023-11-21T09:53:21;18.98;;;3.95;;
63259;SDS011;49390;51.380;0.098;2023-11-21T09:55:52;7.80;;;2.30;;
63259;SDS011;49390;51.380;0.098;2023-11-21T09:58:21;16.00;;;2.67;;
63259;SDS011;49390;51.380;0.098;2023-11-21T10:00:52;3.38;;;1.77;;
63259;SDS011;49390;51.380;0.098;2023-11-21T10:03:21;3.50;;;2.05;;
63259;SDS011;49390;51.380;0.098;2023-11-21T10:05:50;3.83;;;2.25;;
63259;SDS011;49390;51.380;0.098;2023-11-21T10:08:18;3.53;;;2.08;;
63259;SDS011;49390;51.380;0.098;2023-11-21T10:13:20;3.55;;;2.00;;
63259;SDS011;49390;51.380;0.098;2023-11-21T10:15:49;5.05;;;1.90;;
63259;SDS011;49390;51.380;0.098;2023-11-21T10:18:18;4.80;;;2.22;;
63259;SDS011;49390;51.380;0.098;2023-11-21T10:20:46;4.80;;;2.05;;
63259;SDS011;49390;51.380;0.098;2023-11-21T10:23:20;4.03;;;2.03;;
63259;SDS011;49390;51.380;0.098;2023-11-21T10:25:53;5.45;;;2.47;;
63259;SDS011;49390;51.380;0.098;2023-11-21T10:28:24;5.72;;;1.80;;
63259;SDS011;49390;51.380;0.098;2023-11-21T10:30:52;4.43;;;2.28;;
63259;SDS011;49390;51.380;0.098;2023-11-21T10:33:26;6.45;;;2.70;;
63259;SDS011;49390;51.380;0.098;2023-11-21T10:35:55;3.95;;;1.98;;
63259;SDS011;49390;51.380;0.098;2023-11-21T10:38:22;3.33;;;2.00;;
63259;SDS011;49390;51.380;0.098;2023-11-21T10:40:52;3.47;;;1.80;;
63259;SDS011;49390;51.380;0.098;2023-11-21T10:43:24;3.17;;;1.92;;
63259;SDS011;49390;51.380;0.098;2023-11-21T10:45:55;5.57;;;2.70;;
63259;SDS011;49390;51.380;0.098;2023-11-21T10:48:26;3.28;;;1.65;;
63259;SDS011;49390;51.380;0.098;2023-11-21T10:50:55;2.95;;;1.77;;
63259;SDS011;49390;51.380;0.098;2023-11-21T10:53:23;3.88;;;2.00;;
63259;SDS011;49390;51.380;0.098;2023-11-21T10:56:05;3.88;;;1.67;;
63259;SDS011;49390;51.380;0.098;2023-11-21T10:58:35;3.97;;;2.00;;
63259;SDS011;49390;51.380;0.098;2023-11-21T11:01:05;3.22;;;1.80;;
63259;SDS011;49390;51.380;0.098;2023-11-21T11:03:35;3.13;;;1.88;;
63259;SDS011;49390;51.380;0.098;2023-11-21T11:06:04;1.90;;;1.50;;
63259;SDS011;49390;51.380;0.098;2023-11-21T11:08:38;5.03;;;1.80;;
63259;SDS011;49390;51.380;0.098;2023-11-21T11:11:07;3.88;;;1.92;;
63259;SDS011;49390;51.380;0.098;2023-11-21T11:13:37;3.03;;;1.70;;
63259;SDS011;49390;51.380;0.098;2023-11-21T11:16:06;3.15;;;1.80;;
63259;SDS011;49390;51.380;0.098;2023-11-21T11:18:37;4.05;;;1.90;;
63259;SDS011;49390;51.380;0.098;2023-11-21T11:21:15;4.07;;;2.08;;
63259;SDS011;49390;51.380;0.098;2023-11-21T11:32:40;3.13;;;1.65;;
63259;SDS011;49390;51.380;0.098;2023-11-21T11:35:26;3.63;;;1.92;;
63259;SDS011;49390;51.380;0.098;2023-11-21T11:37:58;4.22;;;2.00;;
63259;SDS011;49390;51.380;0.098;2023-11-21T11:40:47;3.15;;;1.90;;
63259;SDS011;49390;51.380;0.098;2023-11-21T11:43:28;3.70;;;1.95;;
63259;SDS011;49390;51.380;0.098;2023-11-21T11:45:56;3.70;;;2.20;;
63259;SDS011;49390;51.380;0.098;2023-11-21T11:48:26;3.58;;;1.92;;
63259;SDS011;49390;51.380;0.098;2023-11-21T11:51:13;4.00;;;1.75;;
63259;SDS011;49390;51.380;0.098;2023-11-21T11:53:44;5.13;;;2.28;;
63259;SDS011;49390;51.380;0.098;2023-11-21T11:59:02;3.47;;;1.92;;
63259;SDS011;49390;51.380;0.098;2023-11-21T12:01:32;2.97;;;2.03;;
63259;SDS011;49390;51.380;0.098;2023-11-21T12:06:41;4.27;;;2.10;;
63259;SDS011;49390;51.380;0.098;2023-11-21T12:09:17;2.83;;;1.80;;
63259;SDS011;49390;51.380;0.098;2023-11-21T12:11:49;3.85;;;2.10;;
63259;SDS011;49390;51.380;0.098;2023-11-21T12:14:18;4.50;;;2.10;;
63259;SDS011;49390;51.380;0.098;2023-11-21T12:16:45;3.42;;;1.88;;
63259;SDS011;49390;51.380;0.098;2023-11-21T12:19:15;4.78;;;2.20;;
63259;SDS011;49390;51.380;0.098;2023-11-21T12:24:02;4.93;;;2.38;;
63259;SDS011;49390;51.380;0.098;2023-11-21T12:26:31;4.10;;;2.40;;
63259;SDS011;49390;51.380;0.098;2023-11-21T12:28:59;2.72;;;1.92;;
63259;SDS011;49390;51.380;0.098;2023-11-21T12:31:27;3.55;;;2.00;;
63259;SDS011;49390;51.380;0.098;2023-11-21T12:33:57;4.50;;;2.30;;
63259;SDS011;49390;51.380;0.098;2023-11-21T12:36:24;4.65;;;2.20;;
63259;SDS011;49390;51.380;0.098;2023-11-21T12:38:53;4.63;;;2.20;;
63259;SDS011;49390;51.380;0.098;2023-11-21T12:41:21;5.10;;;2.50;;
63259;SDS011;49390;51.380;0.098;2023-11-21T12:43:49;5.47;;;2.97;;
63259;SDS011;49390;51.380;0.098;2023-11-21T12:46:17;4.80;;;2.50;;
63259;SDS011;49390;51.380;0.098;2023-11-21T12:48:47;6.82;;;2.78;;
63259;SDS011;49390;51.380;0.098;2023-11-21T12:51:15;4.95;;;2.55;;
63259;SDS011;49390;51.380;0.098;2023-11-21T12:53:43;5.60;;;2.80;;
63259;SDS011;49390;51.380;0.098;2023-11-21T12:56:11;5.28;;;2.85;;
63259;SDS011;49390;51.380;0.098;2023-11-21T12:58:40;4.45;;;2.70;;
63259;SDS011;49390;51.380;0.098;2023-11-21T13:01:19;5.43;;;2.78;;
63259;SDS011;49390;51.380;0.098;2023-11-21T13:03:50;5.80;;;2.85;;
63259;SDS011;49390;51.380;0.098;2023-11-21T13:06:18;5.72;;;2.90;;
63259;SDS011;49390;51.380;0.098;2023-11-21T13:08:48;5.90;;;3.08;;
63259;SDS011;49390;51.380;0.098;2023-11-21T13:11:17;5.20;;;2.60;;
63259;SDS011;49390;51.380;0.098;2023-11-21T13:13:45;6.65;;;2.80;;
63259;SDS011;49390;51.380;0.098;2023-11-21T13:16:13;6.20;;;2.60;;
63259;SDS011;49390;51.380;0.098;2023-11-21T13:18:42;5.15;;;2.50;;
63259;SDS011;49390;51.380;0.098;2023-11-21T13:21:11;4.80;;;2.22;;
63259;SDS011;49390;51.380;0.098;2023-11-21T13:23:44;6.72;;;2.60;;
63259;SDS011;49390;51.380;0.098;2023-11-21T13:26:13;6.60;;;2.60;;
63259;SDS011;49390;51.380;0.098;2023-11-21T13:28:42;6.60;;;2.22;;
63259;SDS011;49390;51.380;0.098;2023-11-21T13:31:14;4.57;;;2.00;;
63259;SDS011;49390;51.380;0.098;2023-11-21T13:33:53;3.80;;;2.15;;
63259;SDS011;49390;51.380;0.098;2023-11-21T13:36:31;5.28;;;2.25;;
63259;SDS011;49390;51.380;0.098;2023-11-21T13:39:02;2.95;;;1.77;;
63259;SDS011;49390;51.380;0.098;2023-11-21T13:41:34;3.38;;;1.90;;
63259;SDS011;49390;51.380;0.098;2023-11-21T13:44:05;4.43;;;1.70;;
63259;SDS011;49390;51.380;0.098;2023-11-21T13:46:54;3.65;;;2.00;;
63259;SDS011;49390;51.380;0.098;2023-11-21T13:49:25;5.22;;;2.28;;
63259;SDS011;49390;51.380;0.098;2023-11-21T13:51:54;3.40;;;2.20;;
63259;SDS011;49390;51.380;0.098;2023-11-21T13:54:22;4.50;;;2.10;;
63259;SDS011;49390;51.380;0.098;2023-11-21T13:56:52;3.75;;;1.90;;
63259;SDS011;49390;51.380;0.098;2023-11-21T13:59:20;4.88;;;2.03;;
63259;SDS011;49390;51.380;0.098;2023-11-21T14:01:53;4.80;;;2.20;;
63259;SDS011;49390;51.380;0.098;2023-11-21T14:04:24;4.07;;;2.10;;
63259;SDS011;49390;51.380;0.098;2023-11-21T14:07:02;6.93;;;2.00;;
63259;SDS011;49390;51.380;0.098;2023-11-21T14:09:48;2.13;;;1.58;;
63259;SDS011;49390;51.380;0.098;2023-11-21T14:12:17;3.55;;;2.00;;
63259;SDS011;49390;51.380;0.098;2023-11-21T14:14:44;3.78;;;1.77;;
63259;SDS011;49390;51.380;0.098;2023-11-21T14:17:25;3.00;;;1.80;;
63259;SDS011;49390;51.380;0.098;2023-11-21T14:19:54;4.70;;;1.98;;
63259;SDS011;49390;51.380;0.098;2023-11-21T14:22:23;3.45;;;2.05;;
63259;SDS011;49390;51.380;0.098;2023-11-21T14:24:53;4.72;;;1.90;;
63259;SDS011;49390;51.380;0.098;2023-11-21T14:27:23;5.47;;;1.95;;
63259;SDS011;49390;51.380;0.098;2023-11-21T14:29:52;4.03;;;1.80;;
63259;SDS011;49390;51.380;0.098;2023-11-21T14:32:20;4.05;;;1.70;;
63259;SDS011;49390;51.380;0.098;2023-11-21T14:34:49;5.28;;;2.22;;
63259;SDS011;49390;51.380;0.098;2023-11-21T14:37:17;21.42;;;4.38;;
63259;SDS011;49390;51.380;0.098;2023-11-21T14:39:47;6.15;;;2.10;;
63259;SDS011;49390;51.380;0.098;2023-11-21T14:42:17;9.33;;;2.50;;
63259;SDS011;49390;51.380;0.098;2023-11-21T14:44:52;4.45;;;1.80;;
63259;SDS011;49390;51.380;0.098;2023-11-21T14:47:22;5.97;;;2.00;;
63259;SDS011;49390;51.380;0.098;2023-11-21T14:49:54;6.82;;;2.00;;
63259;SDS011;49390;51.380;0.098;2023-11-21T14:52:24;4.55;;;1.63;;
63259;SDS011;49390;51.380;0.098;2023-11-21T14:55:03;4.40;;;1.95;;
63259;SDS011;49390;51.380;0.098;2023-11-21T14:57:52;4.30;;;1.95;;
63259;SDS011;49390;51.380;0.098;2023-11-21T15:00:20;8.52;;;2.17;;
63259;SDS011;49390;51.380;0.098;2023-11-21T15:03:01;5.53;;;1.88;;
63259;SDS011;49390;51.380;0.098;2023-11-21T15:05:30;5.88;;;2.22;;
63259;SDS011;49390;51.380;0.098;2023-11-21T15:07:58;5.55;;;2.13;;
63259;SDS011;49390;51.380;0.098;2023-11-21T15:10:41;7.45;;;2.72;;
63259;SDS011;49390;51.380;0.098;2023-11-21T15:13:20;4.32;;;1.92;;
63259;SDS011;49390;51.380;0.098;2023-11-21T15:15:53;6.60;;;2.50;;
63259;SDS011;49390;51.380;0.098;2023-11-21T15:18:27;6.70;;;2.10;;
63259;SDS011;49390;51.380;0.098;2023-11-21T15:20:56;4.45;;;2.00;;
63259;SDS011;49390;51.380;0.098;2023-11-21T15:23:24;8.10;;;2.47;;
63259;SDS011;49390;51.380;0.098;2023-11-21T15:25:51;5.45;;;2.00;;
63259;SDS011;49390;51.380;0.098;2023-11-21T15:28:20;6.25;;;2.10;;